Time;durP1;ratioP1;P1;durP2;ratioP2;P2;SDS_P1;SDS_P2;PMS_P1;PMS_P2;Temp;Humidity;BMP_temperature;BMP_pressure;BME280_temperature;BME280_humidity;BME280_pressure;Samples;Min_cycle;Max_cycle;Signal;HPM_P1;HPM_P2
2022/08/14 00:00:15;;;;;;;5.15;1.70;;;;;;;20.04;85.14;100201.47;4976330;28;20031;-83
2022/08/14 00:02:51;;;;;;;5.20;2.10;;;;;;;19.85;87.00;100196.41;4975102;29;20035;-82
2022/08/14 00:08:54;;;;;;;6.20;2.10;;;;;;;19.65;90.85;100185.94;5010930;23;20062;-81
2022/08/14 00:12:05;;;;;;;3.85;1.83;;;;;;;19.68;93.50;100190.84;5008772;28;20114;-83
2022/08/14 00:15:26;;;;;;;7.25;2.05;;;;;;;19.91;92.29;100185.53;5021542;23;20036;-83
2022/08/14 00:18:21;;;;;;;8.98;1.75;;;;;;;19.91;92.05;100185.53;4938206;29;20052;-79
2022/08/14 00:21:07;;;;;;;3.60;1.63;;;;;;;20.00;92.24;100189.53;4952850;29;20122;-82
2022/08/14 00:29:59;;;;;;;3.05;1.65;;;;;;;20.38;86.94;100172.94;5469571;23;20054;-83
2022/08/14 00:32:50;;;;;;;5.13;1.52;;;;;;;20.60;82.97;100162.41;5479199;23;20054;-84
2022/08/14 00:35:37;;;;;;;3.70;1.35;;;;;;;20.72;80.04;100151.63;5000066;28;20038;-82
2022/08/14 00:38:35;;;;;;;3.65;1.33;;;;;;;20.70;77.09;100151.03;4983594;28;20073;-82
2022/08/14 00:41:34;;;;;;;4.32;1.27;;;;;;;20.50;77.34;100146.03;5016126;28;20062;-83
2022/08/14 00:44:45;;;;;;;5.90;1.33;;;;;;;20.48;77.79;100145.47;5014781;28;20113;-83
2022/08/14 00:50:33;;;;;;;3.80;1.55;;;;;;;20.26;79.87;100145.19;677413;26;20315;-83
2022/08/14 00:53:19;;;;;;;5.60;1.60;;;;;;;20.16;80.91;100146.81;4998660;28;20042;-82
2022/08/14 00:55:57;;;;;;;3.08;1.63;;;;;;;20.03;79.83;100142.50;5248836;23;20061;-84
2022/08/14 00:58:42;;;;;;;2.40;1.65;;;;;;;20.15;77.95;100142.53;4997076;28;20118;-82
2022/08/14 01:04:03;;;;;;;4.30;1.42;;;;;;;19.97;79.59;100125.44;5869543;23;21752;-80
2022/08/14 01:09:38;;;;;;;3.42;0.98;;;;;;;20.21;79.25;100114.66;4915893;26;19933;-81
2022/08/14 01:12:28;;;;;;;1.58;1.30;;;;;;;20.28;77.93;100115.41;4993995;28;20034;-80
2022/08/14 01:15:01;;;;;;;4.13;1.30;;;;;;;20.23;77.89;100123.31;4961203;28;20058;-80
2022/08/14 01:23:54;;;;;;;3.05;1.52;;;;;;;20.21;78.80;100101.22;4965691;28;20098;-84
2022/08/14 01:29:22;;;;;;;3.55;1.38;;;;;;;20.03;80.52;100097.59;4942907;26;20046;-82
2022/08/14 01:32:05;;;;;;;3.40;1.30;;;;;;;19.95;81.02;100100.59;4978076;28;20050;-80
2022/08/14 01:34:40;;;;;;;6.15;1.50;;;;;;;19.63;83.36;100096.59;4968673;28;20046;-80
2022/08/14 01:37:07;;;;;;;3.90;1.30;;;;;;;19.39;84.89;100097.59;4980455;28;20102;-82
2022/08/14 01:40:14;;;;;;;5.28;1.80;;;;;;;19.31;86.36;100097.91;5062704;23;20026;-82
2022/08/14 01:43:29;;;;;;;4.95;1.45;;;;;;;19.33;86.89;100090.41;5018205;28;20046;-81
2022/08/14 01:46:13;;;;;;;10.32;2.13;;;;;;;19.41;87.00;100087.44;5017679;28;20490;-81
2022/08/14 01:48:47;;;;;;;2.78;1.40;;;;;;;19.47;86.23;100087.34;5016490;28;20057;-81
2022/08/14 01:54:21;;;;;;;3.05;1.27;;;;;;;19.66;83.83;100090.75;5182790;23;20054;-81
2022/08/14 02:02:53;;;;;;;2.30;1.50;;;;;;;19.54;84.15;100085.38;4995515;28;20102;-79
2022/08/14 02:05:49;;;;;;;3.53;1.42;;;;;;;19.27;85.45;100080.59;4983658;28;20074;-81
2022/08/14 02:08:29;;;;;;;1.65;1.27;;;;;;;19.21;86.72;100076.16;4996418;28;20039;-81
2022/08/14 02:11:21;;;;;;;4.43;1.60;;;;;;;19.18;87.48;100074.75;4990552;28;20046;-80
2022/08/14 02:14:22;;;;;;;6.15;1.50;;;;;;;19.27;85.68;100059.09;4983364;28;20047;-80
2022/08/14 02:17:42;;;;;;;5.38;1.60;;;;;;;19.37;84.79;100056.66;5328636;23;20046;-80
2022/08/14 02:20:22;;;;;;;8.18;1.90;;;;;;;19.35;84.26;100048.03;4925773;29;20068;-82
2022/08/14 02:23:41;;;;;;;3.17;1.52;;;;;;;19.31;83.80;100045.00;4971339;29;20055;-83
2022/08/14 02:26:29;;;;;;;3.30;1.70;;;;;;;19.10;86.59;100040.94;4954927;29;20044;-81
2022/08/14 02:29:27;;;;;;;1.77;1.52;;;;;;;19.05;88.25;100030.09;4939933;29;20060;-81
2022/08/14 02:32:19;;;;;;;16.60;1.80;;;;;;;19.24;86.58;100027.31;4956275;29;20047;-83
2022/08/14 02:38:21;;;;;;;3.38;1.73;;;;;;;19.09;87.69;100031.25;5008896;28;20057;-82
2022/08/14 02:41:22;;;;;;;1.92;1.60;;;;;;;19.18;85.75;100025.56;5013720;28;20134;-80
2022/08/14 02:46:57;;;;;;;2.90;1.33;;;;;;;19.08;84.94;100040.38;4952351;29;20055;-80
2022/08/14 02:49:34;;;;;;;2.55;1.60;;;;;;;18.88;85.49;100042.53;4939173;29;20052;-82
2022/08/14 02:52:21;;;;;;;3.10;1.30;;;;;;;18.88;84.87;100037.16;4938804;29;20166;-80
2022/08/14 02:54:51;;;;;;;1.95;1.52;;;;;;;18.93;82.80;100041.81;4954319;29;20074;-82
2022/08/14 02:58:03;;;;;;;2.50;1.55;;;;;;;19.01;80.41;100031.59;5005598;23;20077;-82
2022/08/14 03:01:32;;;;;;;5.80;1.55;;;;;;;18.93;79.95;100023.84;5012014;28;20038;-82
2022/08/14 03:04:10;;;;;;;2.67;1.20;;;;;;;18.82;80.42;100024.63;5012206;28;20041;-82
2022/08/14 03:06:47;;;;;;;3.97;1.40;;;;;;;18.67;81.41;100029.56;5011206;28;20081;-80
2022/08/14 03:09:50;;;;;;;3.08;1.63;;;;;;;18.76;80.53;100025.53;4996998;28;20038;-81
2022/08/14 03:12:19;;;;;;;3.17;1.85;;;;;;;18.59;82.14;100028.00;5014985;28;20053;-81
2022/08/14 03:14:52;;;;;;;2.35;1.42;;;;;;;18.53;82.17;100006.63;5051055;23;20054;-81
2022/08/14 03:17:34;;;;;;;3.50;1.30;;;;;;;18.47;83.66;100012.88;5000241;28;20046;-81
2022/08/14 03:20:06;;;;;;;5.38;1.60;;;;;;;18.53;82.84;100012.00;5015021;28;20041;-79
2022/08/14 03:22:51;;;;;;;3.13;1.45;;;;;;;18.54;83.11;100016.31;5016187;28;20042;-80
2022/08/14 03:25:47;;;;;;;;;;;;;;;18.49;83.65;100024.22;5024632;23;20057;-81
2022/08/14 03:28:28;;;;;;;3.45;1.38;;;;;;;18.38;83.77;100019.59;5015289;28;19918;-81
2022/08/14 03:31:08;;;;;;;3.25;1.50;;;;;;;18.35;83.71;100022.72;5015266;28;20073;-81
2022/08/14 03:48:44;;;;;;;4.53;1.73;;;;;;;18.12;86.33;100003.81;5071722;23;20058;-85
2022/08/14 03:51:18;;;;;;;2.25;1.42;;;;;;;18.19;87.05;99999.19;5012476;28;20054;-83
2022/08/14 03:54:54;;;;;;;2.70;1.40;;;;;;;18.05;88.03;99999.34;5176059;23;20145;-84
2022/08/14 04:00:32;;;;;;;2.97;1.55;;;;;;;18.16;86.73;100005.84;4385275;26;20043;-81
2022/08/14 04:10:17;;;;;;;2.30;1.70;;;;;;;18.00;91.63;100001.03;5000271;28;20082;-79
2022/08/14 04:14:23;;;;;;;6.90;2.17;;;;;;;17.99;90.40;99999.41;4996032;28;20050;-84
2022/08/14 04:17:53;;;;;;;2.45;1.92;;;;;;;17.98;90.00;99995.91;4999646;28;20066;-82
2022/08/14 04:26:56;;;;;;;5.05;2.60;;;;;;;18.09;88.79;99991.69;5054027;23;20090;-82
2022/08/14 04:30:00;;;;;;;6.72;2.30;;;;;;;17.85;89.41;99988.00;4997890;28;20034;-85
2022/08/14 04:32:45;;;;;;;8.18;2.85;;;;;;;17.77;90.83;99990.97;4975830;29;20035;-81
2022/08/14 04:35:12;;;;;;;2.55;2.10;;;;;;;17.83;90.25;99997.31;5050627;23;20058;-82
2022/08/14 04:44:01;;;;;;;3.35;1.70;;;;;;;17.95;88.45;100009.78;5015370;28;20058;-82
2022/08/14 04:48:11;;;;;;;2.60;1.58;;;;;;;17.94;87.27;100010.81;5016170;28;20050;-83
2022/08/14 04:50:02;;;;;;;11.43;1.58;;;;;;;17.96;85.99;100007.91;5013602;28;20066;-82
2022/08/14 04:52:48;;;;;;;3.72;1.42;;;;;;;18.02;83.34;100007.84;4989027;28;20051;-81
2022/08/14 04:55:43;;;;;;;2.60;1.40;;;;;;;17.95;83.80;100011.63;4980651;28;20038;-82
2022/08/14 05:02:44;;;;;;;3.10;1.73;;;;;;;17.89;83.76;100023.25;4997422;28;20110;-83
2022/08/14 05:05:23;;;;;;;4.05;1.35;;;;;;;17.85;85.21;100022.88;4987280;28;20027;-83
2022/08/14 05:08:13;;;;;;;5.03;1.00;;;;;;;18.12;83.18;100036.00;4957913;28;20075;-82
2022/08/14 05:13:48;;;;;;;5.07;1.37;;;;;;;18.27;81.62;100025.69;4853070;26;20043;-82
2022/08/14 05:19:13;;;;;;;1.63;1.23;;;;;;;18.40;80.77;100029.06;5930697;23;20069;-82
2022/08/14 05:36:27;;;;;;;1.92;0.98;;;;;;;19.89;71.04;100050.44;5155571;23;20054;-84
2022/08/14 05:39:17;;;;;;;2.42;1.40;;;;;;;20.33;68.48;100057.09;4966364;28;20049;-81
2022/08/14 05:42:50;;;;;;;3.05;1.45;;;;;;;20.36;68.58;100059.31;4993710;28;20054;-83
2022/08/14 05:45:19;;;;;;;2.40;0.90;;;;;;;20.72;67.87;100051.97;4979849;28;20053;-84
2022/08/14 05:53:34;;;;;;;6.43;1.02;;;;;;;22.73;57.86;100051.72;5187974;23;20100;-81
2022/08/14 05:57:16;;;;;;;2.22;0.95;;;;;;;22.71;57.69;100059.25;5017125;28;20049;-86
2022/08/14 06:08:14;;;;;;;5.22;1.40;;;;;;;23.35;55.44;100056.69;4977017;28;20107;-82
2022/08/14 06:11:03;;;;;;;2.35;1.40;;;;;;;23.24;55.13;100049.53;4956930;28;20064;-82
2022/08/14 06:14:26;;;;;;;6.38;1.40;;;;;;;23.65;53.87;100035.31;4962046;28;20054;-85
2022/08/14 06:18:06;;;;;;;;;;;;;;;;;;;;;
2022/08/14 06:23:48;;;;;;;5.47;1.60;;;;;;;24.40;53.21;100034.97;4991956;28;20047;-84
2022/08/14 06:29:10;;;;;;;5.10;1.60;;;;;;;25.00;50.47;100025.44;4112132;26;20051;-85
2022/08/14 06:37:23;;;;;;;3.20;1.45;;;;;;;25.80;48.89;100029.28;3119583;26;20034;-83
2022/08/14 06:49:09;;;;;;;4.82;1.23;;;;;;;26.11;46.67;100036.28;4578296;23;20054;-85
2022/08/14 06:51:45;;;;;;;1.65;1.23;;;;;;;25.96;47.73;100028.16;5013419;28;20034;-79
2022/08/14 06:54:33;;;;;;;1.63;0.93;;;;;;;26.72;44.78;100031.44;5014051;28;20046;-87
2022/08/14 06:58:05;;;;;;;2.65;1.30;;;;;;;26.74;44.07;100045.59;5009057;28;20085;-80
2022/08/14 07:06:22;;;;;;;2.53;1.10;;;;;;;27.75;43.18;100055.81;4038770;23;20121;-88
2022/08/14 07:09:14;;;;;;;3.47;1.20;;;;;;;28.19;41.88;100055.66;5245243;23;20057;-82
2022/08/14 07:15:03;;;;;;;2.03;1.15;;;;;;;27.28;43.82;100052.91;5187469;23;20047;-83
2022/08/14 07:18:27;;;;;;;3.08;1.00;;;;;;;28.20;41.51;100063.56;5007376;28;20073;-84
2022/08/14 07:21:18;;;;;;;4.03;1.38;;;;;;;28.57;40.96;100067.50;4983432;28;20050;-87
2022/08/14 07:24:23;;;;;;;2.63;0.88;;;;;;;28.96;40.82;100061.81;4989646;28;20082;-86
2022/08/14 07:27:07;;;;;;;7.93;1.40;;;;;;;28.44;41.79;100062.75;5008772;28;20050;-86
2022/08/14 07:33:44;;;;;;;2.63;1.70;;;;;;;28.37;42.59;100045.94;5017187;28;20029;-82
2022/08/14 07:36:48;;;;;;;5.05;2.08;;;;;;;27.74;43.49;100054.19;5017661;28;20061;-82
2022/08/14 07:42:06;;;;;;;2.40;1.80;;;;;;;28.46;42.69;100058.63;5022975;23;20112;-85
2022/08/14 07:47:02;;;;;;;5.72;1.80;;;;;;;28.97;42.12;100049.81;5012533;23;20039;-84
2022/08/14 07:49:27;;;;;;;7.47;2.10;;;;;;;28.69;42.80;100051.56;4950518;28;20035;-84
2022/08/14 07:51:53;;;;;;;5.10;2.90;;;;;;;28.30;43.79;100048.19;4962373;28;20369;-83
2022/08/14 07:54:19;;;;;;;4.30;2.50;;;;;;;28.24;44.88;100055.59;4980949;28;20058;-83
2022/08/14 07:56:44;;;;;;;2.85;2.30;;;;;;;28.42;44.50;100051.31;4981240;28;20039;-84
2022/08/14 07:59:10;;;;;;;5.88;2.63;;;;;;;28.60;43.89;100054.06;4980183;28;20029;-80
2022/08/14 08:01:36;;;;;;;3.22;2.20;;;;;;;29.49;43.20;100068.69;4963679;28;20058;-83
2022/08/14 08:04:02;;;;;;;5.82;2.60;;;;;;;30.02;40.28;100060.97;4979636;28;20082;-84
2022/08/14 08:06:29;;;;;;;6.75;3.22;;;;;;;29.94;41.15;100061.66;4966259;28;20518;-83
2022/08/14 08:08:57;;;;;;;5.70;2.75;;;;;;;30.54;40.36;100062.44;4963995;28;20035;-83
2022/08/14 08:11:26;;;;;;;5.75;2.50;;;;;;;30.15;40.82;100070.28;4981579;28;20036;-83
2022/08/14 08:13:54;;;;;;;7.43;4.28;;;;;;;29.92;40.22;100076.72;4947539;28;20038;-82
2022/08/14 08:16:22;;;;;;;7.20;4.22;;;;;;;30.01;40.04;100075.72;4981250;28;20031;-82
2022/08/14 08:18:49;;;;;;;9.77;5.30;;;;;;;31.00;37.97;100070.50;4965627;28;20480;-85
2022/08/14 08:21:15;;;;;;;10.90;6.53;;;;;;;30.88;38.52;100075.66;4973697;28;20094;-86
2022/08/14 08:23:40;;;;;;;12.55;6.95;;;;;;;30.19;40.35;100085.78;4989244;28;20069;-84
2022/08/14 08:26:06;;;;;;;8.95;6.95;;;;;;;29.70;41.78;100091.00;4988481;28;20114;-85
2022/08/14 08:28:32;;;;;;;12.13;6.55;;;;;;;30.23;41.59;100086.78;4970246;28;20043;-84
2022/08/14 08:31:11;;;;;;;7.32;6.55;;;;;;;30.88;39.88;100099.47;4975849;28;20077;-82
2022/08/14 08:33:52;;;;;;;13.80;7.30;;;;;;;30.93;38.14;100094.69;5021303;23;20101;-81
2022/08/14 08:36:32;;;;;;;10.57;6.32;;;;;;;31.15;38.23;100083.84;5070814;23;20085;-85
2022/08/14 08:39:22;;;;;;;9.65;5.97;;;;;;;31.29;38.26;100080.25;4988092;28;20029;-83
2022/08/14 08:42:05;;;;;;;18.52;6.03;;;;;;;30.95;38.16;100086.19;4959075;29;20031;-84
2022/08/14 08:44:37;;;;;;;11.52;7.93;;;;;;;31.25;36.98;100072.63;4983704;28;20047;-83
2022/08/14 08:47:06;;;;;;;10.50;9.13;;;;;;;30.62;38.55;100083.59;4953784;28;20043;-86
2022/08/14 08:49:43;;;;;;;10.70;6.80;;;;;;;30.77;38.88;100069.59;4930207;29;20107;-86
2022/08/14 08:52:10;;;;;;;12.75;7.22;;;;;;;31.38;37.00;100061.94;4932542;29;20409;-87
2022/08/14 08:54:37;;;;;;;8.35;6.80;;;;;;;31.23;37.01;100068.59;4946061;29;20091;-89
2022/08/14 08:57:11;;;;;;;9.25;6.97;;;;;;;31.41;36.29;100072.28;4922413;29;20044;-86
2022/08/14 08:59:37;;;;;;;8.13;6.05;;;;;;;31.45;35.96;100065.88;4939596;29;20086;-88
2022/08/14 09:02:07;;;;;;;5.90;5.30;;;;;;;31.15;35.97;100055.66;4940634;29;20035;-88
2022/08/14 09:04:40;;;;;;;9.23;6.15;;;;;;;30.69;37.00;100064.03;4926256;29;20032;-88
2022/08/14 09:07:06;;;;;;;6.45;5.78;;;;;;;30.83;36.97;100055.78;4939645;29;20054;-89
2022/08/14 09:09:33;;;;;;;8.48;5.57;;;;;;;30.85;36.37;100061.78;4923337;29;20477;-88
2022/08/14 09:12:02;;;;;;;9.57;5.85;;;;;;;31.27;35.36;100051.25;4940587;29;20036;-87
2022/08/14 09:14:30;;;;;;;8.05;4.88;;;;;;;31.06;35.73;100041.06;4939187;29;20482;-87
2022/08/14 09:16:58;;;;;;;12.15;5.70;;;;;;;30.99;37.24;100046.97;4905722;29;20035;-89
2022/08/14 09:19:23;;;;;;;11.48;6.35;;;;;;;31.33;36.15;100048.38;4938999;29;20082;-87
2022/08/14 09:21:49;;;;;;;8.30;5.43;;;;;;;31.18;35.38;100061.31;4939837;29;20032;-91
2022/08/14 09:24:15;;;;;;;11.98;5.63;;;;;;;30.99;34.74;100057.13;4940460;29;20180;-88
2022/08/14 09:26:42;;;;;;;6.85;5.30;;;;;;;30.97;35.43;100054.69;4922735;29;20032;-88
2022/08/14 09:29:09;;;;;;;12.50;5.60;;;;;;;30.78;37.13;100056.72;4950777;29;20027;-86
2022/08/14 09:31:38;;;;;;;5.70;4.80;;;;;;;31.09;36.24;100051.41;4947281;29;20051;-87
2022/08/14 09:36:56;;;;;;;45.33;7.10;;;;;;;31.04;36.29;100033.16;4995439;28;20038;-87
2022/08/14 09:39:52;;;;;;;62.38;7.65;;;;;;;30.83;36.42;100026.50;4986868;28;20133;-90
2022/08/14 09:42:55;;;;;;;9.80;5.10;;;;;;;31.19;35.80;100030.06;4995277;28;20050;-84
2022/08/14 09:45:31;;;;;;;7.45;4.47;;;;;;;31.27;35.56;100023.84;5007729;28;20057;-85
2022/08/14 09:47:58;;;;;;;10.25;4.55;;;;;;;31.45;35.31;100026.72;5002190;28;20035;-86
2022/08/14 09:50:25;;;;;;;8.60;4.40;;;;;;;31.88;34.37;100014.09;4998171;28;20030;-89
2022/08/14 09:52:57;;;;;;;19.23;4.88;;;;;;;32.01;34.26;100026.09;4965826;28;20476;-88
2022/08/14 09:55:25;;;;;;;10.35;4.38;;;;;;;32.23;34.37;100015.88;5008968;28;20069;-90
2022/08/14 09:58:08;;;;;;;9.02;4.03;;;;;;;32.61;33.96;100013.44;5008356;28;20117;-89
2022/08/14 10:00:59;;;;;;;10.90;3.50;;;;;;;33.57;32.02;100006.81;5003573;28;20042;-88
2022/08/14 10:03:32;;;;;;;8.50;3.90;;;;;;;33.35;31.91;100001.50;4985649;28;20049;-89
2022/08/14 10:06:17;;;;;;;11.85;4.40;;;;;;;33.08;32.34;99992.44;4988485;28;20047;-88
2022/08/14 10:08:48;;;;;;;5.35;3.97;;;;;;;33.07;32.54;99995.53;4971995;28;20034;-88
2022/08/14 10:11:23;;;;;;;10.90;3.40;;;;;;;33.34;30.98;100011.69;5010909;28;20026;-90
2022/08/14 10:13:53;;;;;;;5.90;3.53;;;;;;;33.42;31.06;100007.31;4985964;28;20038;-86
2022/08/14 10:16:25;;;;;;;8.13;2.80;;;;;;;33.46;30.87;100000.03;4972084;28;20039;-91
2022/08/14 10:19:08;;;;;;;7.25;2.15;;;;;;;33.28;31.75;99997.31;4982976;28;20035;-88
2022/08/14 10:21:37;;;;;;;7.38;2.15;;;;;;;33.55;31.39;99995.31;4979825;28;20507;-88
2022/08/14 10:24:07;;;;;;;9.05;2.22;;;;;;;33.51;30.49;99986.13;4992589;28;20097;-88
2022/08/14 10:26:34;;;;;;;4.35;1.80;;;;;;;32.87;30.71;99980.53;4985323;28;20039;-83
2022/08/14 10:29:10;;;;;;;8.40;1.85;;;;;;;32.78;30.93;99987.91;4988113;28;20030;-88
2022/08/14 10:31:36;;;;;;;9.75;1.42;;;;;;;33.03;30.81;99987.13;4987405;28;20092;-89
2022/08/14 10:34:09;;;;;;;4.22;1.60;;;;;;;33.13;30.44;99973.09;4984860;28;20042;-87
2022/08/14 10:36:38;;;;;;;5.13;1.73;;;;;;;33.25;30.76;99976.00;4985155;28;20030;-87
2022/08/14 10:39:15;;;;;;;5.93;1.95;;;;;;;33.62;30.32;99973.66;4987299;28;20026;-86
2022/08/14 10:41:42;;;;;;;7.03;1.70;;;;;;;33.90;28.79;99972.13;4987203;28;20030;-85
2022/08/14 10:44:15;;;;;;;5.85;1.52;;;;;;;34.51;28.68;99967.09;4983231;28;20044;-86
2022/08/14 10:47:09;;;;;;;3.45;1.48;;;;;;;34.24;29.51;99969.22;4990570;28;20085;-85
2022/08/14 10:49:36;;;;;;;4.78;1.73;;;;;;;34.49;29.48;99952.88;4987568;28;20120;-86
2022/08/14 10:52:08;;;;;;;5.38;1.40;;;;;;;33.96;29.24;99959.78;4963269;28;20214;-86
2022/08/14 10:54:44;;;;;;;;;;;;;;;33.55;29.54;99965.09;4984632;28;20046;-86
2022/08/14 10:57:23;;;;;;;7.00;1.48;;;;;;;33.84;29.24;99954.16;4989690;28;19921;-85
2022/08/14 11:00:12;;;;;;;2.15;1.30;;;;;;;33.87;29.01;99950.78;4994303;28;20026;-84
2022/08/14 11:03:20;;;;;;;5.32;1.67;;;;;;;34.02;28.56;99944.72;5041895;23;20061;-86
2022/08/14 11:05:48;;;;;;;3.58;1.20;;;;;;;34.74;28.47;99938.13;5144458;23;20432;-86
2022/08/14 11:08:18;;;;;;;2.40;1.15;;;;;;;34.71;27.93;99936.84;4958995;28;20035;-86
2022/08/14 11:10:59;;;;;;;1.92;1.23;;;;;;;34.48;28.57;99937.50;4961290;28;20487;-87
2022/08/14 11:13:27;;;;;;;2.80;1.20;;;;;;;34.10;28.65;99934.81;4971239;28;20049;-87
2022/08/14 11:15:59;;;;;;;5.28;1.58;;;;;;;33.68;29.45;99929.19;4957502;28;20031;-85
2022/08/14 11:18:25;;;;;;;5.05;1.90;;;;;;;33.56;29.03;99929.03;4975485;28;20480;-87
2022/08/14 11:20:54;;;;;;;5.63;1.73;;;;;;;33.47;29.73;99924.72;4974385;28;20038;-86
2022/08/14 11:23:25;;;;;;;8.82;1.30;;;;;;;33.33;29.83;99933.16;4975956;28;20046;-86
2022/08/14 11:25:51;;;;;;;4.22;1.40;;;;;;;33.78;30.07;99928.00;4975566;28;20049;-86
2022/08/14 11:28:24;;;;;;;2.38;1.30;;;;;;;33.71;29.54;99930.44;4951630;28;20062;-83
2022/08/14 11:30:51;;;;;;;3.45;1.20;;;;;;;33.38;30.05;99921.19;4980385;28;20145;-85
2022/08/14 11:33:28;;;;;;;1.80;1.00;;;;;;;34.17;28.96;99919.41;4978878;28;20038;-87
2022/08/14 11:35:54;;;;;;;1.92;1.10;;;;;;;34.65;27.53;99907.09;4978175;28;20045;-85
2022/08/14 11:38:20;;;;;;;2.58;1.05;;;;;;;34.68;27.81;99911.94;4978723;28;20106;-86
2022/08/14 11:40:46;;;;;;;2.33;1.20;;;;;;;34.88;28.18;99908.34;4979086;28;20086;-88
2022/08/14 11:43:12;;;;;;;2.60;1.10;;;;;;;34.49;27.48;99893.13;4978513;28;20089;-85
2022/08/14 11:45:39;;;;;;;1.67;1.15;;;;;;;34.05;27.91;99894.53;4973016;28;20043;-86
2022/08/14 11:48:20;;;;;;;3.95;1.10;;;;;;;33.58;28.62;99891.03;4975929;28;20027;-87
2022/08/14 11:50:50;;;;;;;8.93;1.20;;;;;;;33.44;29.01;99900.66;4961442;28;20396;-87
2022/08/14 11:53:30;;;;;;;2.63;1.10;;;;;;;33.03;30.21;99893.78;4981091;28;20046;-90
2022/08/14 11:55:57;;;;;;;3.53;1.20;;;;;;;32.61;30.15;99903.66;4987975;28;20034;-89
2022/08/14 11:58:33;;;;;;;2.38;1.10;;;;;;;32.56;30.56;99886.50;4981802;28;20129;-88
2022/08/14 12:01:05;;;;;;;1.80;1.10;;;;;;;32.54;31.39;99897.00;4974516;28;20085;-85
2022/08/14 12:03:39;;;;;;;2.58;1.23;;;;;;;32.57;31.04;99899.97;4995467;28;20057;-91
2022/08/14 12:11:44;;;;;;;;;;;;;;;32.54;31.06;99889.59;3030380;26;20047;-87
2022/08/14 12:21:18;;;;;;;2.17;1.10;;;;;;;32.31;31.21;99879.09;4999818;28;20050;-88
2022/08/14 12:25:01;;;;;;;2.65;1.20;;;;;;;32.21;31.74;99875.53;4997474;28;20046;-88
2022/08/14 12:28:31;;;;;;;4.22;1.00;;;;;;;31.99;31.26;99880.28;4980227;28;20057;-91
2022/08/14 12:31:52;;;;;;;3.10;1.42;;;;;;;31.71;32.55;99875.06;4978611;28;20155;-88
2022/08/14 12:34:43;;;;;;;2.58;1.10;;;;;;;31.59;31.71;99863.06;4978285;28;20086;-87
2022/08/14 12:37:59;;;;;;;3.30;1.10;;;;;;;31.51;31.83;99858.38;4998615;28;20039;-89
2022/08/14 12:44:29;;;;;;;2.00;1.00;;;;;;;31.42;32.26;99863.00;5186750;23;20062;-91
2022/08/14 12:47:46;;;;;;;1.48;1.05;;;;;;;31.51;31.41;99861.13;4984721;28;20086;-92
2022/08/14 12:50:35;;;;;;;2.75;1.17;;;;;;;31.37;32.11;99849.44;5000954;28;20042;-91
2022/08/14 12:53:08;;;;;;;4.57;1.25;;;;;;;31.45;32.22;99852.22;4999953;28;20046;-92
2022/08/14 12:55:59;;;;;;;2.08;1.20;;;;;;;31.71;31.42;99841.38;5001216;28;20094;-90
2022/08/14 12:58:43;;;;;;;2.40;1.02;;;;;;;31.61;32.22;99838.94;4998755;28;20038;-92
2022/08/14 13:01:09;;;;;;;5.47;1.27;;;;;;;31.50;32.33;99843.03;4969865;28;20048;-91
2022/08/14 13:03:36;;;;;;;6.82;1.10;;;;;;;31.34;32.58;99828.16;5019233;28;20052;-91
2022/08/14 13:06:02;;;;;;;2.90;1.05;;;;;;;31.54;32.14;99822.16;5018202;28;20114;-92
2022/08/14 13:08:33;;;;;;;1.90;1.10;;;;;;;31.33;32.73;99832.00;5019605;28;20029;-90
2022/08/14 13:11:05;;;;;;;1.10;0.90;;;;;;;31.51;32.59;99817.31;5020355;28;20033;-91
2022/08/14 13:13:34;;;;;;;3.08;1.10;;;;;;;31.56;32.94;99820.69;5002215;28;20049;-90
2022/08/14 13:16:05;;;;;;;3.00;1.30;;;;;;;31.29;33.60;99818.13;5016303;28;20041;-91
2022/08/14 13:18:33;;;;;;;11.52;1.33;;;;;;;31.25;33.54;99822.66;5017719;28;20038;-92
2022/08/14 13:21:01;;;;;;;6.07;1.15;;;;;;;31.09;33.75;99811.28;4987420;28;20105;-90
2022/08/14 13:23:35;;;;;;;4.00;1.35;;;;;;;31.06;34.27;99800.97;4986695;28;20018;-92
2022/08/14 13:26:10;;;;;;;3.92;1.40;;;;;;;31.03;34.46;99803.53;5017884;28;20105;-91
2022/08/14 13:28:42;;;;;;;6.05;1.35;;;;;;;30.99;34.17;99808.81;5002889;28;20034;-89
2022/08/14 13:31:15;;;;;;;3.42;1.38;;;;;;;31.00;34.19;99801.41;5000983;28;20053;-90
2022/08/14 13:33:59;;;;;;;4.43;1.23;;;;;;;31.04;34.73;99803.22;5016404;28;20082;-91
2022/08/14 13:36:38;;;;;;;2.63;1.25;;;;;;;31.04;34.23;99803.22;4984870;28;20039;-90
2022/08/14 13:39:34;;;;;;;2.45;1.38;;;;;;;30.92;33.94;99805.72;4960596;28;20074;-89
2022/08/14 13:42:26;;;;;;;7.90;1.30;;;;;;;31.02;33.67;99794.53;4986460;28;20058;-90
2022/08/14 13:44:54;;;;;;;2.47;1.13;;;;;;;30.68;34.51;99805.25;4936845;28;20105;-86
2022/08/14 13:47:28;;;;;;;4.45;1.15;;;;;;;30.72;34.28;99789.81;4966972;28;20034;-84
2022/08/14 13:49:56;;;;;;;3.38;1.30;;;;;;;30.82;34.28;99789.56;4953969;28;20048;-86
2022/08/14 13:52:23;;;;;;;2.05;1.20;;;;;;;30.84;34.65;99775.56;4988569;28;20046;-86
2022/08/14 13:54:52;;;;;;;2.35;1.48;;;;;;;31.09;34.28;99767.50;5008034;28;20042;-86
2022/08/14 13:57:18;;;;;;;3.67;1.27;;;;;;;31.19;34.26;99760.91;4987260;28;20034;-85
2022/08/14 13:59:49;;;;;;;2.03;1.20;;;;;;;31.25;34.92;99757.72;5005496;28;20045;-88
2022/08/14 14:02:17;;;;;;;2.22;1.17;;;;;;;31.26;34.64;99753.88;4987534;28;20037;-84
2022/08/14 14:04:47;;;;;;;5.13;1.58;;;;;;;31.23;34.08;99751.78;4990779;28;20038;-86
2022/08/14 14:07:20;;;;;;;4.70;1.48;;;;;;;31.11;33.97;99751.56;5006152;28;20108;-86
2022/08/14 14:09:47;;;;;;;2.83;1.20;;;;;;;31.04;34.50;99742.19;5002579;28;20046;-83
2022/08/14 14:12:14;;;;;;;3.40;1.52;;;;;;;30.99;34.05;99734.91;5002634;28;20022;-85
2022/08/14 14:14:41;;;;;;;3.80;1.38;;;;;;;30.98;34.27;99733.31;5006622;28;20078;-86
2022/08/14 14:17:13;;;;;;;4.38;1.50;;;;;;;31.08;34.10;99722.09;5006711;28;20036;-85
2022/08/14 14:19:45;;;;;;;2.78;1.58;;;;;;;31.02;34.45;99719.81;5005626;28;20038;-86
2022/08/14 14:22:14;;;;;;;2.67;1.40;;;;;;;31.16;34.26;99718.56;4970461;28;20049;-87
2022/08/14 14:24:42;;;;;;;6.35;1.73;;;;;;;31.06;35.69;99718.84;4986795;28;20045;-86
2022/08/14 14:27:08;;;;;;;5.20;1.52;;;;;;;30.99;35.90;99714.97;5002014;28;20029;-86
2022/08/14 14:32:27;;;;;;;4.47;1.60;;;;;;;30.79;35.88;99712.78;4904974;29;20056;-85
2022/08/14 14:35:02;;;;;;;2.83;1.67;;;;;;;30.76;36.48;99708.72;4904934;29;20059;-84
2022/08/14 14:37:29;;;;;;;6.32;1.50;;;;;;;30.69;36.72;99702.91;4907447;29;20514;-86
2022/08/14 14:39:57;;;;;;;4.72;1.63;;;;;;;30.67;36.40;99702.41;4909454;29;20072;-87
2022/08/14 14:42:27;;;;;;;4.82;1.52;;;;;;;30.77;36.01;99702.94;4909765;29;20100;-86
2022/08/14 14:45:03;;;;;;;4.38;1.80;;;;;;;30.79;36.00;99697.16;4893029;29;20075;-85
2022/08/14 14:47:32;;;;;;;4.70;1.50;;;;;;;30.94;35.56;99694.00;4909594;29;20589;-88
2022/08/14 14:49:59;;;;;;;2.47;1.48;;;;;;;30.95;35.95;99695.63;4911314;29;20052;-86
2022/08/14 14:52:25;;;;;;;4.38;1.30;;;;;;;31.04;35.69;99693.72;4912384;29;20129;-86
2022/08/14 14:54:51;;;;;;;3.10;1.58;;;;;;;31.13;35.12;99691.00;4911228;29;20049;-85
2022/08/14 14:57:17;;;;;;;3.25;1.20;;;;;;;31.22;35.35;99695.38;4910417;29;20048;-83
2022/08/14 14:59:44;;;;;;;2.78;1.20;;;;;;;31.17;35.68;99703.75;4909697;29;20085;-85
2022/08/14 15:02:23;;;;;;;4.03;1.60;;;;;;;31.13;36.31;99702.78;4908781;29;20060;-82
2022/08/14 15:04:49;;;;;;;2.03;1.30;;;;;;;31.04;36.15;99707.41;4910764;29;20047;-86
2022/08/14 15:07:15;;;;;;;4.57;1.45;;;;;;;31.23;36.17;99709.88;4928605;29;20033;-83
2022/08/14 15:09:41;;;;;;;2.50;1.52;;;;;;;31.16;36.43;99701.31;4965434;28;20043;-86
2022/08/14 15:12:07;;;;;;;4.40;1.30;;;;;;;31.01;36.06;99694.38;4989252;28;20041;-86
2022/08/14 15:14:33;;;;;;;5.03;1.25;;;;;;;30.85;36.34;99698.63;4971033;28;20484;-87
2022/08/14 15:16:58;;;;;;;2.53;1.20;;;;;;;31.09;35.51;99701.78;4988122;28;20105;-86
2022/08/14 15:19:24;;;;;;;2.28;1.40;;;;;;;31.08;35.81;99689.25;4989618;28;20078;-84
2022/08/14 15:21:49;;;;;;;2.25;1.45;;;;;;;31.20;35.62;99689.44;4991672;28;20081;-85
2022/08/14 15:24:19;;;;;;;5.20;1.35;;;;;;;31.11;36.37;99688.59;4989300;28;20038;-85
2022/08/14 15:26:45;;;;;;;3.28;1.50;;;;;;;31.08;36.20;99686.50;4978543;28;20034;-84